createdAt,value
2019-03-03T00:01:29.298Z,127.38
2019-03-03T00:03:58.788Z,128.93
2019-03-03T00:06:28.242Z,120.72
2019-03-03T00:08:57.741Z,125.42
2019-03-03T00:11:27.171Z,126.38
2019-03-03T00:13:56.682Z,128.02
2019-03-03T00:16:26.129Z,128.90
2019-03-03T00:18:55.565Z,128.25
2019-03-03T00:21:25.063Z,132.87
2019-03-03T00:23:54.516Z,140.43
2019-03-03T00:26:24.172Z,130.30
2019-03-03T00:28:53.583Z,123.95
2019-03-03T00:31:38.381Z,128.57
2019-03-03T00:34:07.937Z,126.90
2019-03-03T00:36:55.084Z,129.40
2019-03-03T00:39:43.545Z,126.22
2019-03-03T00:42:35.264Z,129.23
2019-03-03T00:45:18.110Z,128.18
2019-03-03T00:48:06.520Z,123.20
2019-03-03T00:50:52.146Z,119.60
2019-03-03T00:53:43.489Z,126.42
2019-03-03T00:56:35.470Z,117.80
2019-03-03T00:59:14.333Z,128.15
2019-03-03T01:01:57.469Z,122.37
2019-03-03T01:04:44.778Z,121.47
2019-03-03T01:07:35.972Z,129.15
2019-03-03T01:10:11.742Z,129.85
2019-03-03T01:12:51.386Z,127.05
2019-03-03T01:15:39.838Z,129.65
2019-03-03T01:18:27.080Z,131.95
2019-03-03T01:21:04.432Z,131.97
2019-03-03T01:23:57.444Z,132.72
2019-03-03T01:26:26.889Z,123.07
2019-03-03T01:28:56.326Z,132.63
2019-03-03T01:31:25.828Z,135.35
2019-03-03T01:33:55.288Z,127.78
2019-03-03T01:36:24.810Z,129.60
2019-03-03T01:38:54.276Z,135.53
2019-03-03T01:41:23.819Z,134.45
2019-03-03T01:43:53.358Z,138.43
2019-03-03T01:46:22.944Z,129.63
2019-03-03T01:48:52.401Z,134.65
2019-03-03T01:51:21.876Z,132.03
2019-03-03T01:53:51.314Z,128.40
2019-03-03T01:56:20.830Z,128.10
2019-03-03T01:58:50.307Z,134.10
2019-03-03T02:01:19.967Z,129.32
2019-03-03T02:03:49.368Z,123.18
2019-03-03T02:06:19.042Z,135.22
2019-03-03T02:08:48.587Z,122.78
2019-03-03T02:11:18.057Z,135.63
2019-03-03T02:13:47.509Z,131.70
2019-03-03T02:16:16.943Z,129.12
2019-03-03T02:18:46.363Z,126.67
2019-03-03T02:21:15.821Z,125.70
2019-03-03T02:23:45.237Z,126.90
2019-03-03T02:26:15.080Z,125.65
2019-03-03T02:28:44.515Z,120.50
2019-03-03T02:31:14.015Z,123.60
2019-03-03T02:33:43.455Z,127.62
2019-03-03T02:36:13.079Z,117.43
2019-03-03T02:38:42.502Z,120.77
2019-03-03T02:41:11.954Z,121.95
2019-03-03T02:43:42.020Z,117.25
2019-03-03T02:46:11.521Z,121.22
2019-03-03T02:48:40.976Z,117.40
2019-03-03T02:51:10.524Z,114.90
2019-03-03T02:53:39.981Z,114.20
2019-03-03T02:56:09.402Z,118.73
2019-03-03T02:58:38.864Z,114.15
2019-03-03T03:01:17.224Z,111.45
2019-03-03T03:03:46.851Z,119.02
2019-03-03T03:06:38.040Z,118.53
2019-03-03T03:09:11.787Z,116.88
2019-03-03T03:11:58.925Z,118.65
2019-03-03T03:15:02.675Z,120.03
2019-03-03T03:18:09.153Z,114.65
2019-03-03T03:20:48.133Z,109.10
2019-03-03T03:23:23.255Z,117.90
2019-03-03T03:26:08.703Z,117.15
2019-03-03T03:29:06.308Z,117.28
2019-03-03T03:31:45.770Z,117.35
2019-03-03T03:34:19.408Z,117.03
2019-03-03T03:37:02.768Z,119.87
2019-03-03T03:39:38.802Z,120.02
2019-03-03T03:42:19.727Z,120.15
2019-03-03T03:45:13.958Z,120.70
2019-03-03T03:48:01.138Z,123.90
2019-03-03T03:50:41.672Z,112.37
2019-03-03T03:53:28.034Z,119.33
2019-03-03T03:56:09.190Z,118.93
2019-03-03T03:58:56.257Z,117.85
2019-03-03T04:01:42.472Z,119.90
2019-03-03T04:04:23.503Z,121.10
2019-03-03T04:07:20.817Z,123.05
2019-03-03T04:10:15.419Z,119.93
2019-03-03T04:12:54.833Z,115.17
2019-03-03T04:16:01.281Z,119.42
2019-03-03T04:18:49.738Z,118.67
2019-03-03T04:21:27.947Z,123.10
2019-03-03T04:24:15.167Z,116.35
2019-03-03T04:26:56.645Z,128.62
2019-03-03T04:29:45.102Z,129.45
2019-03-03T04:32:33.589Z,127.82
2019-03-03T04:35:10.485Z,118.97
2019-03-03T04:38:04.960Z,124.22
2019-03-03T04:40:49.539Z,121.90
2019-03-03T04:43:29.884Z,125.22
2019-03-03T04:46:06.664Z,124.50
2019-03-03T04:48:53.659Z,123.05
2019-03-03T04:51:54.343Z,122.47
2019-03-03T04:54:42.721Z,131.03
2019-03-03T04:57:31.078Z,123.95
2019-03-03T05:00:18.347Z,131.57
2019-03-03T05:03:04.258Z,130.70
2019-03-03T05:05:40.079Z,126.87
2019-03-03T05:08:23.014Z,126.95
2019-03-03T05:11:01.914Z,128.47
2019-03-03T05:13:56.300Z,129.82
2019-03-03T05:16:50.531Z,130.07
2019-03-03T05:19:33.245Z,128.43
2019-03-03T05:22:02.675Z,142.32
2019-03-03T05:24:34.589Z,136.55
2019-03-03T05:27:03.169Z,131.18
2019-03-03T05:29:32.699Z,135.13
2019-03-03T05:32:02.137Z,131.30
2019-03-03T05:34:31.603Z,127.15
2019-03-03T05:37:01.103Z,129.65
2019-03-03T05:39:30.516Z,130.22
2019-03-03T05:42:00.029Z,131.07
2019-03-03T05:44:29.503Z,133.82
2019-03-03T05:46:58.925Z,133.57
2019-03-03T05:49:28.382Z,133.80
2019-03-03T05:51:57.913Z,125.75
2019-03-03T05:54:27.579Z,125.87
2019-03-03T05:56:57.091Z,128.97
2019-03-03T05:59:26.514Z,122.60
2019-03-03T06:01:56.317Z,120.87
2019-03-03T06:04:25.757Z,122.53
2019-03-03T06:06:55.232Z,121.28
2019-03-03T06:09:25.099Z,122.72
2019-03-03T06:11:54.596Z,123.85
2019-03-03T06:14:24.065Z,123.15
2019-03-03T06:16:53.519Z,118.25
2019-03-03T06:19:23.087Z,123.10
2019-03-03T06:21:52.619Z,122.10
2019-03-03T06:24:22.264Z,123.10
2019-03-03T06:26:51.691Z,120.50
2019-03-03T06:29:21.254Z,125.62
2019-03-03T06:31:50.858Z,122.40
2019-03-03T06:34:20.425Z,123.10
2019-03-03T06:36:49.915Z,112.97
2019-03-03T06:39:19.635Z,126.97
2019-03-03T06:41:50.547Z,126.00
2019-03-03T06:44:39.207Z,123.23
2019-03-03T06:47:08.782Z,121.65
2019-03-03T06:49:38.443Z,121.60
2019-03-03T06:52:08.072Z,116.70
2019-03-03T06:54:37.698Z,123.25
2019-03-03T06:57:07.144Z,121.13
2019-03-03T06:59:36.707Z,126.47
2019-03-03T07:02:06.294Z,118.35
2019-03-03T07:04:35.897Z,125.12
2019-03-03T07:07:05.799Z,120.87
2019-03-03T07:09:35.649Z,123.13
2019-03-03T07:12:05.383Z,122.62
2019-03-03T07:14:34.928Z,128.78
2019-03-03T07:17:04.348Z,119.50
2019-03-03T07:19:33.773Z,119.23
2019-03-03T07:22:02.669Z,121.82
2019-03-03T07:24:32.107Z,114.30
2019-03-03T07:27:01.664Z,118.42
2019-03-03T07:29:31.352Z,117.80
2019-03-03T07:32:00.815Z,111.33
2019-03-03T07:34:30.418Z,116.33
2019-03-03T07:36:59.832Z,115.03
2019-03-03T07:39:29.266Z,109.07
2019-03-03T07:41:58.833Z,106.30
2019-03-03T07:44:27.780Z,99.50
2019-03-03T07:46:57.206Z,103.10
2019-03-03T07:49:26.728Z,98.70
2019-03-03T07:51:56.400Z,100.70
2019-03-03T07:54:25.952Z,99.07
2019-03-03T07:56:55.464Z,101.80
2019-03-03T07:59:24.867Z,92.47
2019-03-03T08:01:54.299Z,96.78
2019-03-03T08:04:23.768Z,93.50
2019-03-03T08:06:53.262Z,93.35
2019-03-03T08:09:22.724Z,98.58
2019-03-03T08:11:52.155Z,88.75
2019-03-03T08:14:21.619Z,95.60
2019-03-03T08:16:51.499Z,92.05
2019-03-03T08:19:21.047Z,96.25
2019-03-03T08:21:50.808Z,91.65
2019-03-03T08:24:20.263Z,89.73
2019-03-03T08:26:49.757Z,95.12
2019-03-03T08:29:19.730Z,88.78
2019-03-03T08:31:49.651Z,95.33
2019-03-03T08:34:19.261Z,91.60
2019-03-03T08:36:49.085Z,91.67
2019-03-03T08:39:18.561Z,89.62
2019-03-03T08:41:50.759Z,86.42
2019-03-03T08:44:23.629Z,93.43
2019-03-03T08:47:08.360Z,73.33
2019-03-03T08:49:43.307Z,95.57
2019-03-03T08:52:18.305Z,83.50
2019-03-03T08:55:05.326Z,95.03
2019-03-03T08:57:46.028Z,84.83
2019-03-03T09:00:34.356Z,94.52
2019-03-03T09:03:28.867Z,90.55
2019-03-03T09:06:07.667Z,88.82
2019-03-03T09:08:56.146Z,80.47
2019-03-03T09:11:47.590Z,80.60
2019-03-03T09:14:30.649Z,81.43
2019-03-03T09:17:18.010Z,85.40
2019-03-03T09:20:12.604Z,88.17
2019-03-03T10:53:33.400Z,54.27
2019-03-03T10:56:37.108Z,54.03
2019-03-03T10:59:19.660Z,44.80
2019-03-03T11:02:08.111Z,57.53
2019-03-03T11:04:55.244Z,52.40
2019-03-03T11:07:52.700Z,41.23
2019-03-03T11:10:41.142Z,59.93
2019-03-03T11:13:28.083Z,47.17
2019-03-03T11:16:16.310Z,49.77
2019-03-03T11:19:23.006Z,40.57
2019-03-03T11:22:17.201Z,45.73
2019-03-03T11:25:17.865Z,45.33
2019-03-03T11:27:56.031Z,43.90
2019-03-03T11:30:31.603Z,48.37
2019-03-03T11:33:19.181Z,55.07
2019-03-03T11:36:02.132Z,52.37
2019-03-03T11:38:49.597Z,58.17
2019-03-03T11:41:41.148Z,60.53
2019-03-03T11:44:28.938Z,48.27
2019-03-03T11:47:35.776Z,57.43
2019-03-03T11:50:18.236Z,38.80
2019-03-03T11:53:09.272Z,54.30
2019-03-03T11:55:53.948Z,56.07
2019-03-03T11:58:36.357Z,23.90
2019-03-03T12:01:37.960Z,53.90
2019-03-03T12:04:38.804Z,40.87
2019-03-03T12:07:44.463Z,60.10
2019-03-03T12:10:36.066Z,58.30
2019-03-03T12:13:24.492Z,31.30
2019-03-03T12:16:13.047Z,55.63
2019-03-03T12:19:04.503Z,37.03
2019-03-03T12:21:50.950Z,43.47
2019-03-03T12:24:42.168Z,66.60
2019-03-03T12:27:39.384Z,45.73
2019-03-03T12:30:31.417Z,48.50
2019-03-03T12:33:18.788Z,61.53
2019-03-03T12:36:09.960Z,62.43
2019-03-03T12:38:58.428Z,60.70
2019-03-03T12:41:55.600Z,68.13
2019-03-03T12:44:34.393Z,72.50
2019-03-03T12:47:28.695Z,29.67
2019-03-03T12:50:29.724Z,49.50
2019-03-03T12:53:16.757Z,57.43
2019-03-03T12:55:55.861Z,42.50
2019-03-03T12:58:53.753Z,52.10
2019-03-03T13:01:41.116Z,38.87
2019-03-03T13:04:28.466Z,54.13
2019-03-03T13:07:07.120Z,53.80
2019-03-03T13:10:01.269Z,54.87
2019-03-03T13:12:37.384Z,58.50
2019-03-03T13:15:27.331Z,58.90
2019-03-03T13:18:18.768Z,53.00
2019-03-03T13:21:06.139Z,60.40
2019-03-03T13:23:57.514Z,50.77
2019-03-03T13:26:51.961Z,54.70
2019-03-03T13:29:39.288Z,56.80
2019-03-03T13:32:33.716Z,51.73
2019-03-03T13:35:15.283Z,46.77
2019-03-03T13:37:51.878Z,49.53
2019-03-03T13:40:58.870Z,47.70
2019-03-03T13:43:28.460Z,62.93
2019-03-03T13:45:58.112Z,52.83
2019-03-03T13:48:27.661Z,54.60
2019-03-03T13:50:57.252Z,58.60
2019-03-03T13:53:26.764Z,30.40
2019-03-03T13:55:56.273Z,42.17
2019-03-03T13:58:25.725Z,60.43
2019-03-03T14:00:55.203Z,45.90
2019-03-03T14:03:24.690Z,34.03
2019-03-03T14:05:54.129Z,47.17
2019-03-03T14:08:23.716Z,55.53
2019-03-03T14:10:53.125Z,47.27
2019-03-03T14:13:22.643Z,47.03
2019-03-03T14:15:52.273Z,52.30
2019-03-03T14:18:21.746Z,51.03
2019-03-03T14:20:51.523Z,54.40
2019-03-03T14:23:21.219Z,45.97
2019-03-03T14:25:50.671Z,48.13
2019-03-03T14:28:20.131Z,36.13
2019-03-03T14:30:49.624Z,35.13
2019-03-03T14:33:19.112Z,53.30
2019-03-03T14:35:48.557Z,53.33
2019-03-03T14:38:18.056Z,46.40
2019-03-03T14:40:47.613Z,57.20
2019-03-03T14:43:17.274Z,50.37
2019-03-03T14:45:46.757Z,30.23
2019-03-03T14:48:16.239Z,48.03
2019-03-03T14:50:45.668Z,47.30
2019-03-03T14:53:15.090Z,60.10
2019-03-03T14:55:44.571Z,46.37
2019-03-03T14:58:14.030Z,39.90
2019-03-03T15:00:43.471Z,50.70
2019-03-03T15:03:12.955Z,43.67
2019-03-03T15:05:42.459Z,48.23
2019-03-03T15:08:11.917Z,52.13
2019-03-03T15:10:41.311Z,58.03
2019-03-03T15:13:10.759Z,54.63
2019-03-03T15:15:40.327Z,45.93
2019-03-03T15:18:09.828Z,49.93
2019-03-03T15:20:39.589Z,41.57
2019-03-03T15:23:09.161Z,50.37
2019-03-03T15:25:38.942Z,44.87
2019-03-03T15:28:08.527Z,32.20
2019-03-03T15:30:38.206Z,41.53
2019-03-03T15:33:07.731Z,33.80
2019-03-03T15:35:37.208Z,46.27
2019-03-03T15:38:07.022Z,47.73
2019-03-03T15:40:36.471Z,46.77
2019-03-03T15:43:06.438Z,51.70
2019-03-03T15:45:36.171Z,33.13
2019-03-03T15:48:05.656Z,47.10
2019-03-03T15:50:35.155Z,43.07
2019-03-03T15:53:07.042Z,49.27
2019-03-03T15:55:36.581Z,49.13
2019-03-03T15:58:06.101Z,42.73
2019-03-03T16:00:35.557Z,42.93
2019-03-03T16:03:05.832Z,45.73
2019-03-03T16:05:35.439Z,41.17
2019-03-03T16:08:04.911Z,44.03
2019-03-03T16:10:34.364Z,42.10
2019-03-03T16:13:04.168Z,40.87
2019-03-03T16:15:33.676Z,41.30
2019-03-03T16:18:03.086Z,35.63
2019-03-03T16:20:32.558Z,39.50
2019-03-03T16:23:02.135Z,36.00
2019-03-03T16:25:31.613Z,35.03
2019-03-03T16:28:01.104Z,39.97
2019-03-03T16:30:30.557Z,36.03
2019-03-03T16:33:00.031Z,36.87
2019-03-03T16:35:29.515Z,40.73
2019-03-03T16:37:59.097Z,30.00
2019-03-03T16:40:28.489Z,27.93
2019-03-03T16:42:57.924Z,41.23
2019-03-03T16:45:27.334Z,43.17
2019-03-03T16:47:56.782Z,35.33
2019-03-03T16:50:26.303Z,40.77
2019-03-03T16:52:55.824Z,38.88
2019-03-03T16:55:25.269Z,40.35
2019-03-03T16:57:54.684Z,36.77
2019-03-03T17:00:24.136Z,38.23
2019-03-03T17:02:54.002Z,18.57
2019-03-03T17:05:23.568Z,35.75
2019-03-03T17:07:53.365Z,38.80
2019-03-03T17:10:22.842Z,40.00
2019-03-03T17:12:52.380Z,27.43
2019-03-03T17:15:22.527Z,42.33
2019-03-03T17:17:52.186Z,48.30
2019-03-03T17:20:22.543Z,32.67
2019-03-03T17:22:51.941Z,42.90
2019-03-03T17:25:22.470Z,24.57
2019-03-03T17:27:52.037Z,32.70
2019-03-03T17:30:23.302Z,32.57
2019-03-03T17:32:52.851Z,66.50
2019-03-03T17:35:22.553Z,42.30
2019-03-03T17:37:51.956Z,46.83
2019-03-03T17:40:21.611Z,48.70
2019-03-03T17:42:51.223Z,44.77
2019-03-03T17:45:21.369Z,45.63
2019-03-03T17:47:50.933Z,43.50
2019-03-03T17:50:21.262Z,44.73
2019-03-03T17:52:51.637Z,43.77
2019-03-03T17:55:21.101Z,42.23
2019-03-03T17:57:50.609Z,36.03
2019-03-03T18:00:21.833Z,40.67
2019-03-03T18:02:51.341Z,43.23
2019-03-03T18:05:21.180Z,36.90
2019-03-03T18:07:51.045Z,39.40
2019-03-03T18:10:20.899Z,36.80
2019-03-03T18:12:50.523Z,34.93
2019-03-03T18:15:20.019Z,34.47
2019-03-03T18:17:50.473Z,24.70
2019-03-03T18:20:20.323Z,30.90
2019-03-03T18:22:49.961Z,34.97
2019-03-03T18:25:19.407Z,40.33
2019-03-03T18:27:49.040Z,27.50
2019-03-03T18:30:20.265Z,40.43
2019-03-03T18:32:49.760Z,30.23
2019-03-03T18:35:19.340Z,34.83
2019-03-03T18:37:49.018Z,34.67
2019-03-03T18:40:19.497Z,29.90
2019-03-03T18:42:48.969Z,30.37
2019-03-03T18:45:18.526Z,33.73
2019-03-03T18:47:49.053Z,45.50
2019-03-03T18:50:18.867Z,42.53
2019-03-03T18:52:48.484Z,27.30
2019-03-03T18:55:17.908Z,42.00
2019-03-03T18:57:47.354Z,40.23
2019-03-03T19:00:22.861Z,36.97
2019-03-03T19:02:52.554Z,37.20
2019-03-03T19:05:22.960Z,43.50
2019-03-03T19:07:52.799Z,44.50
2019-03-03T19:10:25.092Z,45.37
2019-03-03T19:12:54.442Z,49.47
2019-03-03T19:15:23.935Z,48.48
2019-03-03T19:17:53.371Z,51.28
2019-03-03T19:20:22.965Z,46.83
2019-03-03T19:22:52.744Z,49.63
2019-03-03T19:25:22.198Z,45.95
2019-03-03T19:27:51.692Z,47.90
2019-03-03T19:30:22.985Z,47.03
2019-03-03T19:33:08.190Z,31.25
2019-03-03T19:35:37.661Z,47.30
2019-03-03T19:38:07.097Z,48.85
2019-03-03T19:40:36.554Z,49.03
2019-03-03T19:43:06.031Z,46.15
2019-03-03T19:45:35.754Z,42.63
2019-03-03T19:48:05.949Z,51.18
2019-03-03T19:50:35.555Z,45.92
2019-03-03T19:53:06.339Z,47.27
2019-03-03T19:55:35.804Z,47.50
2019-03-03T19:58:05.880Z,43.45
2019-03-03T20:00:38.766Z,46.18
2019-03-03T20:03:06.688Z,43.38
2019-03-03T20:05:36.239Z,46.60
2019-03-03T20:08:05.981Z,37.98
2019-03-03T20:10:36.022Z,48.17
2019-03-03T20:13:06.334Z,39.55
2019-03-03T20:15:36.605Z,41.58
2019-03-03T20:18:07.328Z,42.90
2019-03-03T20:20:36.823Z,39.27
2019-03-03T20:23:06.574Z,41.80
2019-03-03T20:25:36.073Z,45.40
2019-03-03T20:28:05.484Z,38.20
2019-03-03T20:30:35.064Z,48.08
2019-03-03T20:33:04.758Z,49.25
2019-03-03T20:35:34.169Z,42.65
2019-03-03T20:38:03.620Z,44.27
2019-03-03T20:40:33.039Z,45.20
2019-03-03T20:43:02.466Z,41.95
2019-03-03T20:45:32.025Z,45.25
2019-03-03T20:48:01.449Z,48.52
2019-03-03T20:50:31.228Z,47.35
2019-03-03T20:53:00.650Z,45.70
2019-03-03T20:55:30.106Z,44.73
2019-03-03T20:57:59.628Z,42.95
2019-03-03T21:00:29.058Z,43.15
2019-03-03T21:02:58.624Z,46.80
2019-03-03T21:05:28.269Z,48.17
2019-03-03T21:07:57.793Z,47.23
2019-03-03T21:10:27.282Z,45.43
2019-03-03T21:12:56.756Z,43.92
2019-03-03T21:15:26.240Z,46.68
2019-03-03T21:17:55.673Z,42.83
2019-03-03T21:20:25.482Z,41.75
2019-03-03T21:22:55.103Z,44.58
2019-03-03T21:25:24.553Z,48.13
2019-03-03T21:27:54.075Z,44.27
2019-03-03T21:30:24.152Z,44.23
2019-03-03T21:32:53.614Z,44.40
2019-03-03T21:35:23.006Z,37.45
2019-03-03T21:37:52.840Z,41.85
2019-03-03T21:40:22.343Z,41.42
2019-03-03T21:42:51.759Z,43.85
2019-03-03T21:45:21.596Z,47.35
2019-03-03T21:47:51.151Z,41.20
2019-03-03T21:50:21.682Z,45.33
2019-03-03T21:52:51.136Z,41.08
2019-03-03T21:55:20.667Z,43.40
2019-03-03T21:57:50.157Z,42.65
2019-03-03T22:00:30.953Z,46.00
2019-03-03T22:03:00.458Z,41.05
2019-03-03T22:05:30.177Z,40.45
2019-03-03T22:07:59.661Z,42.25
2019-03-03T22:10:33.107Z,41.27
2019-03-03T22:13:04.606Z,44.35
2019-03-03T22:15:34.059Z,43.92
2019-03-03T22:18:03.613Z,28.47
2019-03-03T22:20:33.029Z,39.73
2019-03-03T22:23:02.700Z,39.75
2019-03-03T22:25:32.076Z,38.80
2019-03-03T22:28:01.569Z,34.07
2019-03-03T22:30:31.236Z,37.15
2019-03-03T22:33:00.685Z,41.60
2019-03-03T22:35:30.146Z,41.23
2019-03-03T22:38:00.012Z,38.15
2019-03-03T22:40:29.493Z,38.20
2019-03-03T22:42:58.925Z,39.30
2019-03-03T22:45:28.519Z,22.58
2019-03-03T22:47:57.983Z,42.37
2019-03-03T22:50:27.434Z,41.33
2019-03-03T22:52:57.276Z,42.30
2019-03-03T22:55:26.701Z,31.17
2019-03-03T22:57:56.135Z,41.40
2019-03-03T23:00:52.557Z,42.33
2019-03-03T23:03:55.410Z,42.88
2019-03-03T23:06:50.702Z,41.98
2019-03-03T23:10:13.116Z,41.00
2019-03-03T23:13:09.957Z,43.60
2019-03-03T23:16:19.909Z,46.45
2019-03-03T23:19:28.892Z,47.60
2019-03-03T23:22:51.480Z,44.75
2019-03-03T23:25:49.777Z,47.30
2019-03-03T23:28:20.305Z,46.42
2019-03-03T23:30:50.200Z,49.80
2019-03-03T23:33:20.246Z,48.40
2019-03-03T23:35:49.801Z,47.33
2019-03-03T23:38:19.292Z,45.95
2019-03-03T23:40:48.727Z,48.83
2019-03-03T23:43:18.515Z,47.60
2019-03-03T23:45:48.021Z,41.50
2019-03-03T23:48:17.463Z,33.18
2019-03-03T23:50:47.091Z,48.80
2019-03-03T23:53:16.600Z,44.15
2019-03-03T23:55:46.104Z,48.00
2019-03-03T23:58:15.664Z,47.93
